sensor_id;sensor_type;location;lat;lon;timestamp;pressure;altitude;pressure_sealevel;temperature;humidity
52185;BME280;38160;52.876;18.778;2022-10-31T00:02:13;101166.48;;;10.55;99.04
52185;BME280;38160;52.876;18.778;2022-10-31T00:04:45;101162.55;;;10.49;98.67
52185;BME280;38160;52.876;18.778;2022-10-31T00:07:16;101164.05;;;10.48;99.00
52185;BME280;38160;52.876;18.778;2022-10-31T00:09:48;101166.94;;;10.50;99.35
52185;BME280;38160;52.876;18.778;2022-10-31T00:12:19;101169.83;;;10.53;99.30
52185;BME280;38160;52.876;18.778;2022-10-31T00:14:51;101171.03;;;10.55;99.23
52185;BME280;38160;52.876;18.778;2022-10-31T00:17:22;101170.20;;;10.54;99.25
52185;BME280;38160;52.876;18.778;2022-10-31T00:19:54;101172.02;;;10.53;99.48
52185;BME280;38160;52.876;18.778;2022-10-31T00:22:25;101166.98;;;10.55;99.49
52185;BME280;38160;52.876;18.778;2022-10-31T00:24:57;101176.77;;;10.56;99.46
52185;BME280;38160;52.876;18.778;2022-10-31T00:27:29;101169.32;;;10.53;99.39
52185;BME280;38160;52.876;18.778;2022-10-31T00:30:00;101170.84;;;10.52;99.40
52185;BME280;38160;52.876;18.778;2022-10-31T00:32:32;101175.08;;;10.55;99.36
52185;BME280;38160;52.876;18.778;2022-10-31T00:35:04;101171.55;;;10.54;99.40
52185;BME280;38160;52.876;18.778;2022-10-31T00:37:36;101172.72;;;10.56;99.38
52185;BME280;38160;52.876;18.778;2022-10-31T00:40:08;101167.83;;;10.55;99.40
52185;BME280;38160;52.876;18.778;2022-10-31T00:42:41;101161.59;;;10.55;99.55
52185;BME280;38160;52.876;18.778;2022-10-31T00:45:13;101161.92;;;10.56;99.70
52185;BME280;38160;52.876;18.778;2022-10-31T00:47:44;101157.23;;;10.58;99.84
52185;BME280;38160;52.876;18.778;2022-10-31T00:50:16;101167.04;;;10.59;99.73
52185;BME280;38160;52.876;18.778;2022-10-31T05:59:43;101205.31;;;10.72;100.00
52185;BME280;38160;52.876;18.778;2022-10-31T06:02:28;101202.87;;;10.65;100.00
52185;BME280;38160;52.876;18.778;2022-10-31T06:05:03;101213.05;;;10.71;100.00
52185;BME280;38160;52.876;18.778;2022-10-31T06:14:26;101219.34;;;10.89;100.00
52185;BME280;38160;52.876;18.778;2022-10-31T06:17:00;101228.66;;;10.95;100.00
52185;BME280;38160;52.876;18.778;2022-10-31T06:23:04;101233.97;;;11.01;100.00
52185;BME280;38160;52.876;18.778;2022-10-31T06:25:36;101233.61;;;11.00;100.00
52185;BME280;38160;52.876;18.778;2022-10-31T06:41:12;101260.34;;;11.21;100.00
52185;BME280;38160;52.876;18.778;2022-10-31T06:43:48;101260.25;;;11.26;100.00
52185;BME280;38160;52.876;18.778;2022-10-31T07:13:47;101269.77;;;11.74;100.00
52185;BME280;38160;52.876;18.778;2022-10-31T07:16:24;101272.33;;;11.76;100.00
52185;BME280;38160;52.876;18.778;2022-10-31T07:22:19;101273.75;;;11.84;100.00
52185;BME280;38160;52.876;18.778;2022-10-31T07:24:53;101270.94;;;11.90;100.00
52185;BME280;38160;52.876;18.778;2022-10-31T07:44:31;101285.29;;;12.08;100.00
52185;BME280;38160;52.876;18.778;2022-10-31T07:47:22;101284.63;;;12.10;100.00
52185;BME280;38160;52.876;18.778;2022-10-31T07:50:14;101296.17;;;12.16;100.00
52185;BME280;38160;52.876;18.778;2022-10-31T07:56:29;101288.27;;;12.27;100.00
52185;BME280;38160;52.876;18.778;2022-10-31T07:59:01;101295.91;;;12.28;100.00
52185;BME280;38160;52.876;18.778;2022-10-31T08:08:20;101282.41;;;12.36;100.00
52185;BME280;38160;52.876;18.778;2022-10-31T08:10:52;101289.70;;;12.39;100.00
52185;BME280;38160;52.876;18.778;2022-10-31T08:43:59;101324.08;;;12.43;100.00
52185;BME280;38160;52.876;18.778;2022-10-31T14:34:54;101303.25;;;13.20;100.00
52185;BME280;38160;52.876;18.778;2022-10-31T14:37:35;101301.23;;;13.23;100.00
52185;BME280;38160;52.876;18.778;2022-10-31T14:43:36;101293.63;;;13.26;100.00
52185;BME280;38160;52.876;18.778;2022-10-31T15:32:54;101305.67;;;12.85;100.00
52185;BME280;38160;52.876;18.778;2022-10-31T15:35:30;101312.47;;;12.89;100.00
52185;BME280;38160;52.876;18.778;2022-10-31T15:41:33;101309.41;;;12.88;100.00
52185;BME280;38160;52.876;18.778;2022-10-31T15:44:15;101310.94;;;12.87;100.00
52185;BME280;38160;52.876;18.778;2022-10-31T15:49:56;101323.78;;;12.89;100.00
52185;BME280;38160;52.876;18.778;2022-10-31T15:56:02;101328.39;;;12.92;100.00
52185;BME280;38160;52.876;18.778;2022-10-31T15:58:44;101328.06;;;12.91;100.00
52185;BME280;38160;52.876;18.778;2022-10-31T16:05:15;101335.50;;;12.89;100.00
52185;BME280;38160;52.876;18.778;2022-10-31T16:08:00;101343.09;;;12.86;100.00
52185;BME280;38160;52.876;18.778;2022-10-31T16:14:18;101336.14;;;12.83;100.00
52185;BME280;38160;52.876;18.778;2022-10-31T16:16:55;101335.42;;;12.77;100.00
52185;BME280;38160;52.876;18.778;2022-10-31T16:23:46;101337.12;;;12.74;100.00
52185;BME280;38160;52.876;18.778;2022-10-31T16:26:19;101337.83;;;12.80;100.00
52185;BME280;38160;52.876;18.778;2022-10-31T16:41:30;101349.25;;;12.66;100.00
52185;BME280;38160;52.876;18.778;2022-10-31T16:44:24;101351.98;;;12.70;100.00
52185;BME280;38160;52.876;18.778;2022-10-31T16:49:50;101347.08;;;12.69;100.00
52185;BME280;38160;52.876;18.778;2022-10-31T16:52:24;101346.88;;;12.67;100.00
52185;BME280;38160;52.876;18.778;2022-10-31T16:54:55;101348.08;;;12.68;100.00
52185;BME280;38160;52.876;18.778;2022-10-31T16:57:29;101350.48;;;12.71;100.00
52185;BME280;38160;52.876;18.778;2022-10-31T17:00:03;101341.84;;;12.72;100.00
52185;BME280;38160;52.876;18.778;2022-10-31T17:02:35;101346.23;;;12.73;100.00
52185;BME280;38160;52.876;18.778;2022-10-31T17:05:14;101341.17;;;12.74;100.00
52185;BME280;38160;52.876;18.778;2022-10-31T17:07:48;101339.47;;;12.73;100.00
52185;BME280;38160;52.876;18.778;2022-10-31T17:10:21;101341.17;;;12.74;100.00
52185;BME280;38160;52.876;18.778;2022-10-31T17:12:53;101339.13;;;12.72;100.00
52185;BME280;38160;52.876;18.778;2022-10-31T17:15:27;101339.11;;;12.68;100.00
52185;BME280;38160;52.876;18.778;2022-10-31T17:17:59;101336.22;;;12.65;100.00
52185;BME280;38160;52.876;18.778;2022-10-31T17:20:33;101336.05;;;12.63;100.00
52185;BME280;38160;52.876;18.778;2022-10-31T17:23:14;101337.40;;;12.63;100.00
52185;BME280;38160;52.876;18.778;2022-10-31T17:25:46;101336.52;;;12.62;100.00
52185;BME280;38160;52.876;18.778;2022-10-31T17:28:18;101345.31;;;12.56;100.00
52185;BME280;38160;52.876;18.778;2022-10-31T17:30:54;101341.38;;;12.50;100.00
52185;BME280;38160;52.876;18.778;2022-10-31T17:52:06;101335.96;;;12.50;100.00
52185;BME280;38160;52.876;18.778;2022-10-31T17:54:39;101330.88;;;12.51;100.00
52185;BME280;38160;52.876;18.778;2022-10-31T18:13:09;101327.42;;;12.37;100.00
52185;BME280;38160;52.876;18.778;2022-10-31T18:15:40;101329.47;;;12.39;100.00
52185;BME280;38160;52.876;18.778;2022-10-31T18:18:12;101326.25;;;12.39;100.00
52185;BME280;38160;52.876;18.778;2022-10-31T18:20:44;101327.45;;;12.41;100.00
52185;BME280;38160;52.876;18.778;2022-10-31T18:23:15;101319.33;;;12.41;100.00
52185;BME280;38160;52.876;18.778;2022-10-31T18:25:47;101328.14;;;12.43;100.00
52185;BME280;38160;52.876;18.778;2022-10-31T18:28:19;101334.55;;;12.42;100.00
52185;BME280;38160;52.876;18.778;2022-10-31T18:30:51;101333.89;;;12.44;100.00
52185;BME280;38160;52.876;18.778;2022-10-31T18:33:25;101339.84;;;12.48;100.00
52185;BME280;38160;52.876;18.778;2022-10-31T18:36:02;101325.10;;;12.46;100.00
52185;BME280;38160;52.876;18.778;2022-10-31T18:51:43;101311.90;;;12.43;100.00
52185;BME280;38160;52.876;18.778;2022-10-31T18:54:14;101315.60;;;12.42;100.00
52185;BME280;38160;52.876;18.778;2022-10-31T18:56:46;101314.94;;;12.44;100.00
52185;BME280;38160;52.876;18.778;2022-10-31T19:48:36;101316.68;;;12.27;100.00
52185;BME280;38160;52.876;18.778;2022-10-31T19:51:12;101308.23;;;12.26;100.00
52185;BME280;38160;52.876;18.778;2022-10-31T19:53:44;101310.12;;;12.30;100.00
52185;BME280;38160;52.876;18.778;2022-10-31T19:56:19;101304.05;;;12.32;100.00
52185;BME280;38160;52.876;18.778;2022-10-31T20:18:04;101310.82;;;12.32;100.00
52185;BME280;38160;52.876;18.778;2022-10-31T20:20:36;101321.95;;;12.29;100.00
52185;BME280;38160;52.876;18.778;2022-10-31T20:25:45;101319.53;;;12.22;100.00
52185;BME280;38160;52.876;18.778;2022-10-31T23:17:27;101226.02;;;12.27;100.00
